createdAt,value
2018-12-04T00:00:42.738Z,88.61
2018-12-04T00:05:38.746Z,88.07
2018-12-04T00:10:34.741Z,86.73
2018-12-04T00:15:30.965Z,85.40
2018-12-04T00:20:26.949Z,85.38
2018-12-04T00:25:22.961Z,84.99
2018-12-04T00:30:19.820Z,85.74
2018-12-04T00:35:15.874Z,86.11
2018-12-04T00:40:11.877Z,86.89
2018-12-04T00:45:08.017Z,87.48
2018-12-04T00:50:04.234Z,86.90
2018-12-04T00:55:00.273Z,88.05
2018-12-04T00:59:59.867Z,87.66
2018-12-04T01:04:55.863Z,88.42
2018-12-04T01:09:52.059Z,88.10
2018-12-04T01:14:48.065Z,88.59
2018-12-04T01:19:44.093Z,89.22
2018-12-04T01:24:40.052Z,88.74
2018-12-04T01:29:37.396Z,88.68
2018-12-04T01:34:33.450Z,89.09
2018-12-04T01:39:29.442Z,89.07
2018-12-04T01:44:25.437Z,89.80
2018-12-04T01:49:21.414Z,89.56
2018-12-04T01:54:17.523Z,89.78
2018-12-04T01:59:15.329Z,89.65
2018-12-04T02:04:11.625Z,90.30
2018-12-04T02:09:07.622Z,90.14
2018-12-04T02:14:03.597Z,89.86
2018-12-04T02:18:59.601Z,89.56
2018-12-04T02:23:55.628Z,89.43
2018-12-04T02:28:51.627Z,89.08
2018-12-04T02:33:47.614Z,89.34
2018-12-04T02:38:43.684Z,89.20
2018-12-04T02:43:39.676Z,88.95
2018-12-04T02:48:35.697Z,89.33
2018-12-04T02:53:31.796Z,89.33
2018-12-04T02:58:27.813Z,90.03
2018-12-04T03:03:23.897Z,89.54
2018-12-04T03:08:19.897Z,89.91
2018-12-04T03:13:15.897Z,89.82
2018-12-04T03:18:11.923Z,89.50
2018-12-04T03:23:07.922Z,89.68
2018-12-04T03:28:04.048Z,89.64
2018-12-04T03:33:00.042Z,89.43
2018-12-04T03:37:56.029Z,89.29
2018-12-04T03:42:52.037Z,89.95
2018-12-04T03:47:48.049Z,89.33
2018-12-04T03:52:44.056Z,89.66
2018-12-04T03:57:40.101Z,90.40
2018-12-04T04:02:36.124Z,89.86
2018-12-04T04:07:32.126Z,89.52
2018-12-04T04:12:28.122Z,90.19
2018-12-04T04:17:24.133Z,90.38
2018-12-04T04:22:20.201Z,90.04
2018-12-04T04:27:16.198Z,89.33
2018-12-04T04:32:12.213Z,89.96
2018-12-04T04:37:08.209Z,89.85
2018-12-04T04:42:04.194Z,89.95
2018-12-04T04:47:00.173Z,89.99
2018-12-04T04:51:56.167Z,89.54
2018-12-04T04:56:52.229Z,89.84
2018-12-04T05:01:48.440Z,89.89
2018-12-04T05:06:44.461Z,89.58
2018-12-04T05:11:40.449Z,89.63
2018-12-04T05:16:36.497Z,89.25
2018-12-04T05:21:32.489Z,89.34
2018-12-04T05:26:28.490Z,89.24
2018-12-04T05:31:24.512Z,89.19
2018-12-04T05:36:20.514Z,89.69
2018-12-04T05:41:16.508Z,90.12
2018-12-04T05:46:12.501Z,89.82
2018-12-04T05:51:08.500Z,89.55
2018-12-04T05:56:04.602Z,89.60
2018-12-04T06:01:00.663Z,89.62
2018-12-04T06:05:56.765Z,89.52
2018-12-04T06:10:52.785Z,90.17
2018-12-04T06:15:48.806Z,90.24
2018-12-04T06:20:44.833Z,89.97
2018-12-04T06:25:40.931Z,90.54
2018-12-04T06:30:36.945Z,90.52
2018-12-04T06:35:33.025Z,90.59
2018-12-04T06:40:29.085Z,90.76
2018-12-04T06:45:25.106Z,90.59
2018-12-04T06:50:21.175Z,90.36
2018-12-04T06:55:17.217Z,90.76
2018-12-04T07:00:14.006Z,89.98
2018-12-04T07:05:10.085Z,89.95
2018-12-04T07:10:06.269Z,90.45
2018-12-04T07:15:02.304Z,90.64
2018-12-04T07:19:58.317Z,90.41
2018-12-04T07:24:54.341Z,90.62
2018-12-04T07:29:51.273Z,90.65
2018-12-04T07:34:47.447Z,91.03
2018-12-04T07:39:43.690Z,91.26
2018-12-04T07:44:39.769Z,90.48
2018-12-04T07:49:35.805Z,90.45
2018-12-04T07:54:32.556Z,90.33
2018-12-04T07:59:30.139Z,90.59
2018-12-04T08:04:26.321Z,89.84
2018-12-04T08:09:22.353Z,89.75
2018-12-04T08:14:18.375Z,90.53
2018-12-04T08:19:14.418Z,90.60
2018-12-04T08:24:10.435Z,90.71
2018-12-04T08:29:06.472Z,90.12
2018-12-04T08:34:02.665Z,89.91
2018-12-04T08:38:58.684Z,89.37
2018-12-04T08:43:54.722Z,89.87
2018-12-04T08:48:50.753Z,89.15
2018-12-04T08:53:46.774Z,89.16
2018-12-04T08:58:42.805Z,89.09
2018-12-04T09:03:38.931Z,88.82
2018-12-04T09:08:35.081Z,88.60
2018-12-04T09:18:32.793Z,87.97
2018-12-04T09:23:28.849Z,87.65
2018-12-04T09:28:24.994Z,86.80
2018-12-04T09:33:21.016Z,87.32
2018-12-04T09:38:17.090Z,86.50
2018-12-04T09:43:13.111Z,86.66
2018-12-04T09:48:09.231Z,85.61
2018-12-04T09:53:05.386Z,85.76
2018-12-04T09:58:01.375Z,83.92
2018-12-04T10:02:57.385Z,84.40
2018-12-04T10:07:53.403Z,83.17
2018-12-04T10:12:49.510Z,83.17
2018-12-04T10:17:45.802Z,83.00
2018-12-04T10:22:41.853Z,83.46
2018-12-04T10:27:37.882Z,82.29
2018-12-04T10:32:33.916Z,82.86
2018-12-04T10:37:29.966Z,81.36
2018-12-04T10:42:26.022Z,82.06
2018-12-04T10:47:22.053Z,80.15
2018-12-04T10:52:18.104Z,79.16
2018-12-04T10:57:14.128Z,79.30
2018-12-04T11:02:16.377Z,79.01
2018-12-04T11:07:12.413Z,78.23
2018-12-04T11:12:12.264Z,79.11
2018-12-04T11:17:06.648Z,77.66
2018-12-04T11:22:02.784Z,77.50
2018-12-04T11:26:58.805Z,77.79
2018-12-04T11:31:54.861Z,76.62
2018-12-04T11:36:51.068Z,77.71
2018-12-04T11:41:47.209Z,76.31
2018-12-04T11:46:43.243Z,76.02
2018-12-04T11:51:39.263Z,77.04
2018-12-04T11:56:35.424Z,75.44
2018-12-04T12:01:31.578Z,75.01
2018-12-04T12:06:27.618Z,75.35
2018-12-04T12:11:23.652Z,75.59
2018-12-04T12:16:20.348Z,74.41
2018-12-04T12:21:16.377Z,74.31
2018-12-04T12:26:12.545Z,74.60
2018-12-04T12:31:08.581Z,74.67
2018-12-04T12:36:04.728Z,73.79
2018-12-04T12:41:00.763Z,73.60
2018-12-04T12:45:56.778Z,73.44
2018-12-04T12:50:52.795Z,74.04
2018-12-04T12:55:48.824Z,72.94
2018-12-04T13:00:44.880Z,72.91
2018-12-04T13:05:40.909Z,72.80
2018-12-04T13:10:36.984Z,70.94
2018-12-04T13:15:33.054Z,70.70
2018-12-04T13:20:29.185Z,71.05
2018-12-04T13:25:25.313Z,71.31
2018-12-04T13:30:21.464Z,71.05
2018-12-04T13:35:17.521Z,70.85
2018-12-04T13:40:13.579Z,69.60
2018-12-04T13:45:09.665Z,70.50
2018-12-04T13:50:05.821Z,70.26
2018-12-04T13:55:01.897Z,71.08
2018-12-04T13:59:58.814Z,71.67
2018-12-04T14:04:55.008Z,71.28
2018-12-04T14:09:51.056Z,70.80
2018-12-04T14:14:47.199Z,70.84
2018-12-04T14:19:43.239Z,70.69
2018-12-04T14:24:40.345Z,71.31
2018-12-04T14:29:36.976Z,71.90
2018-12-04T14:34:33.191Z,71.59
2018-12-04T14:39:29.564Z,71.63
2018-12-04T14:44:25.849Z,71.97
2018-12-04T14:49:23.794Z,72.29
2018-12-04T14:54:22.543Z,72.39
2018-12-04T14:59:20.842Z,72.52
2018-12-04T15:04:17.761Z,72.81
2018-12-04T15:09:14.920Z,73.10
2018-12-04T15:14:11.070Z,73.06
2018-12-04T15:19:07.244Z,74.15
2018-12-04T15:24:05.114Z,74.17
2018-12-04T15:29:01.428Z,74.73
2018-12-04T15:33:57.607Z,76.86
2018-12-04T15:38:53.899Z,76.71
2018-12-04T15:43:51.674Z,76.35
2018-12-04T15:48:53.069Z,75.94
2018-12-04T15:53:52.261Z,77.19
2018-12-04T15:58:52.332Z,78.33
2018-12-04T16:03:51.428Z,79.70
2018-12-04T16:08:48.934Z,81.45
2018-12-04T16:13:47.982Z,82.05
2018-12-04T16:18:44.903Z,83.02
2018-12-04T16:23:41.818Z,83.53
2018-12-04T16:28:41.519Z,83.33
2018-12-04T16:33:39.586Z,84.98
2018-12-04T16:38:36.607Z,85.74
2018-12-04T16:43:33.132Z,84.98
2018-12-04T16:48:29.352Z,85.75
2018-12-04T16:53:25.492Z,86.63
2018-12-04T16:58:21.921Z,86.69
2018-12-04T17:03:17.977Z,87.17
2018-12-04T17:08:18.950Z,88.20
2018-12-04T17:13:15.017Z,88.62
2018-12-04T17:18:11.338Z,88.95
2018-12-04T17:23:07.373Z,89.14
2018-12-04T17:28:03.473Z,89.00
2018-12-04T17:32:59.819Z,89.29
2018-12-04T17:37:55.862Z,89.92
2018-12-04T17:42:52.009Z,90.65
2018-12-04T17:47:49.709Z,90.94
2018-12-04T17:52:47.059Z,90.93
2018-12-04T17:57:43.096Z,91.60
2018-12-04T18:02:39.139Z,91.79
2018-12-04T18:07:35.261Z,91.91
2018-12-04T18:12:31.270Z,91.87
2018-12-04T18:17:27.353Z,92.00
2018-12-04T18:22:23.865Z,91.72
2018-12-04T18:27:21.072Z,92.33
2018-12-04T18:32:17.095Z,92.54
2018-12-04T18:37:13.103Z,92.73
2018-12-04T18:42:09.237Z,92.36
2018-12-04T18:47:05.260Z,92.23
2018-12-04T18:52:01.280Z,92.12
2018-12-04T18:56:57.357Z,92.72
2018-12-04T19:01:53.383Z,91.88
2018-12-04T19:06:49.442Z,92.45
2018-12-04T19:11:45.469Z,92.90
2018-12-04T19:16:41.516Z,91.64
2018-12-04T19:21:37.577Z,91.47
2018-12-04T19:26:33.798Z,92.46
2018-12-04T19:31:29.825Z,91.51
2018-12-04T19:36:27.007Z,91.76
2018-12-04T19:41:23.665Z,92.45
2018-12-04T19:46:19.715Z,92.95
2018-12-04T19:51:15.742Z,93.38
2018-12-04T19:56:11.885Z,93.13
2018-12-04T20:01:09.523Z,93.78
2018-12-04T20:06:06.464Z,93.80
2018-12-04T20:11:04.243Z,94.20
2018-12-04T20:16:03.845Z,94.11
2018-12-04T20:21:01.068Z,93.77
2018-12-04T20:25:59.773Z,92.05
2018-12-04T20:30:57.501Z,92.57
2018-12-04T20:35:54.471Z,92.99
2018-12-04T20:40:51.313Z,93.47
2018-12-04T20:45:47.362Z,93.53
2018-12-04T20:50:43.377Z,94.04
2018-12-04T20:55:42.514Z,91.98
2018-12-04T21:00:42.771Z,91.16
2018-12-04T21:05:39.268Z,90.41
2018-12-04T21:10:36.222Z,91.35
2018-12-04T21:15:33.312Z,92.38
2018-12-04T21:20:29.486Z,92.67
2018-12-04T21:25:25.497Z,93.00
2018-12-04T21:30:27.661Z,92.37
2018-12-04T21:35:29.859Z,92.40
2018-12-04T21:40:31.833Z,92.60
2018-12-04T21:45:34.045Z,91.97
2018-12-04T21:50:30.085Z,93.39
2018-12-04T21:55:26.134Z,93.09
2018-12-04T22:00:22.146Z,93.15
2018-12-04T22:05:18.959Z,93.56
2018-12-04T22:10:15.044Z,94.24
2018-12-04T22:15:11.068Z,93.91
2018-12-04T22:20:07.082Z,94.33
2018-12-04T22:25:06.552Z,94.05
2018-12-04T22:30:04.731Z,94.22
2018-12-04T22:35:01.175Z,93.92
2018-12-04T22:39:57.212Z,93.63
2018-12-04T22:44:55.261Z,93.46
2018-12-04T22:49:51.245Z,93.54
2018-12-04T22:54:48.579Z,93.61
2018-12-04T22:59:44.584Z,93.83
2018-12-04T23:04:40.823Z,93.87
2018-12-04T23:09:36.820Z,93.80
2018-12-04T23:14:32.860Z,93.62
2018-12-04T23:19:28.881Z,93.51
2018-12-04T23:24:26.674Z,93.78
2018-12-04T23:29:22.808Z,93.87
2018-12-04T23:34:18.822Z,93.57
2018-12-04T23:39:14.825Z,93.87
2018-12-04T23:44:10.914Z,94.09
2018-12-04T23:49:06.931Z,94.23
2018-12-04T23:54:04.575Z,93.59
2018-12-04T23:59:00.678Z,93.68
